Impacts METAR Board
IDs:

KMDW - Chicago/Midway Intl, IL, US

Updated at: 0700 UTC 24 Sep 2018
Potential Impact None Slight Moderate High
Time 23/19Z 23/20Z 23/21Z 23/22Z 23/23Z 24/00Z 24/01Z 24/02Z 24/03Z 24/04Z 24/05Z 24/06Z 24/07Z
Temp68 69 70 68 67 66 65 66 65 65 65 63 62
Dewpt51 52 53 53 52 54 55 56 56 57 54 52 52
Altim30.13 30.11 30.10 30.10 30.11 30.11 30.12 30.12 30.12 30.12 30.12 30.12 30.12
VIS10 10 10 10 10 10 10 10 10 10 10 10 10
CIG-- -- -- -- -- -- -- -- -- -- -- -- --
CoverFEWCLRCLRCLRFEWFEWCLRCLRCLRCLRCLRCLRCLR
FltCatVFRVFRVFRVFRVFRVFRVFRVFRVFRVFRVFRVFRVFR
WX--------------------------
WDir709050708080708090100110130130
WSpd7 9 8 11 9 10 8 8 7 5 7 7 8
WGst16 14 -- -- -- -- -- -- -- -- -- -- --
Raw hourly METARs
KMDW 231853Z 07007G16KT 040V100 10SM FEW030 20/11 A3013 RMK AO2 WSHFT 1829 SLP202 T02000106
KMDW 231953Z 09009G14KT 10SM CLR 21/11 A3011 RMK AO2 SLP193 T02060111
KMDW 232053Z 05008KT 10SM CLR 21/12 A3010 RMK AO2 SLP190 T02110117 58010
KMDW 232153Z 07011KT 10SM CLR 20/12 A3010 RMK AO2 SLP190 T02000117
KMDW 232253Z 08009KT 10SM FEW250 19/11 A3011 RMK AO2 SLP193 T01940111
KMDW 232353Z 08010KT 10SM FEW250 19/12 A3011 RMK AO2 SLP194 T01890122 10211 20183 53002
KMDW 240053Z 07008KT 10SM CLR 18/13 A3012 RMK AO2 SLP197 T01830128
KMDW 240153Z 08008KT 10SM CLR 19/13 A3012 RMK AO2 SLP195 T01890133
KMDW 240253Z 09007KT 10SM CLR 18/13 A3012 RMK AO2 SLP195 T01830133 51004
KMDW 240353Z 10005KT 10SM CLR 18/14 A3012 RMK AO2 SLP196 T01830139
KMDW 240453Z 11007KT 10SM CLR 18/12 A3012 RMK AO2 SLP194 T01830122
KMDW 240553Z 13007KT 10SM CLR 17/11 A3012 RMK AO2 SLP196 T01720111 10189 20172 402110117 53001
KMDW 240653Z 13008KT 10SM CLR 17/11 A3012 RMK AO2 SLP196 T01670111



Page loaded:  07:40 UTC  |   12:40 AM Pacific  |   01:40 AM Mountain  |   02:40 AM Central  |   03:40 AM Eastern

 

ADVISORIES

FORECASTS

FORECASTS

OBSERVATIONS

USER TOOLS

ABOUT US